sensor_id;sensor_type;location;lat;lon;timestamp;P1;durP1;ratioP1;P2;durP2;ratioP2
22017;SDS011;11173;51.050;7.108;2023-04-01T00:09:11;0.80;;;0.30;;
22017;SDS011;11173;51.050;7.108;2023-04-01T00:19:11;0.45;;;0.30;;
22017;SDS011;11173;51.050;7.108;2023-04-01T00:29:11;0.52;;;0.20;;
22017;SDS011;11173;51.050;7.108;2023-04-01T00:39:12;0.80;;;0.43;;
22017;SDS011;11173;51.050;7.108;2023-04-01T00:49:12;0.35;;;0.20;;
22017;SDS011;11173;51.050;7.108;2023-04-01T00:59:15;0.52;;;0.25;;
22017;SDS011;11173;51.050;7.108;2023-04-01T01:09:38;0.20;;;0.20;;
22017;SDS011;11173;51.050;7.108;2023-04-01T01:20:05;0.20;;;0.20;;
22017;SDS011;11173;51.050;7.108;2023-04-01T01:30:22;0.20;;;0.20;;
22017;SDS011;11173;51.050;7.108;2023-04-01T01:40:32;0.10;;;0.10;;
22017;SDS011;11173;51.050;7.108;2023-04-01T01:50:35;0.13;;;0.13;;
22017;SDS011;11173;51.050;7.108;2023-04-01T02:00:37;0.10;;;0.10;;
22017;SDS011;11173;51.050;7.108;2023-04-01T02:10:39;0.20;;;0.20;;
22017;SDS011;11173;51.050;7.108;2023-04-01T02:20:43;0.17;;;0.17;;
22017;SDS011;11173;51.050;7.108;2023-04-01T02:30:44;0.10;;;0.10;;
22017;SDS011;11173;51.050;7.108;2023-04-01T02:40:48;0.10;;;0.10;;
22017;SDS011;11173;51.050;7.108;2023-04-01T02:50:50;0.10;;;0.10;;
22017;SDS011;11173;51.050;7.108;2023-04-01T03:00:51;0.10;;;0.10;;
22017;SDS011;11173;51.050;7.108;2023-04-01T03:10:51;0.20;;;0.20;;
22017;SDS011;11173;51.050;7.108;2023-04-01T03:20:51;0.20;;;0.20;;
22017;SDS011;11173;51.050;7.108;2023-04-01T03:30:52;0.22;;;0.20;;
22017;SDS011;11173;51.050;7.108;2023-04-01T03:40:52;0.10;;;0.10;;
22017;SDS011;11173;51.050;7.108;2023-04-01T03:50:52;0.10;;;0.10;;
22017;SDS011;11173;51.050;7.108;2023-04-01T04:00:53;0.55;;;0.22;;
22017;SDS011;11173;51.050;7.108;2023-04-01T04:10:56;0.20;;;0.20;;
22017;SDS011;11173;51.050;7.108;2023-04-01T04:20:57;0.20;;;0.20;;
22017;SDS011;11173;51.050;7.108;2023-04-01T04:30:57;0.13;;;0.13;;
22017;SDS011;11173;51.050;7.108;2023-04-01T04:40:58;0.20;;;0.20;;
22017;SDS011;11173;51.050;7.108;2023-04-01T04:50:58;0.10;;;0.10;;
22017;SDS011;11173;51.050;7.108;2023-04-01T05:00:59;0.20;;;0.20;;
22017;SDS011;11173;51.050;7.108;2023-04-01T05:10:59;0.10;;;0.10;;
22017;SDS011;11173;51.050;7.108;2023-04-01T05:21:01;0.10;;;0.10;;
22017;SDS011;11173;51.050;7.108;2023-04-01T05:31:02;0.20;;;0.20;;
22017;SDS011;11173;51.050;7.108;2023-04-01T05:41:04;0.10;;;0.10;;
22017;SDS011;11173;51.050;7.108;2023-04-01T05:51:04;0.20;;;0.20;;
22017;SDS011;11173;51.050;7.108;2023-04-01T06:01:06;0.20;;;0.20;;
22017;SDS011;11173;51.050;7.108;2023-04-01T06:11:33;0.20;;;0.17;;
22017;SDS011;11173;51.050;7.108;2023-04-01T06:21:37;0.30;;;0.30;;
22017;SDS011;11173;51.050;7.108;2023-04-01T06:32:06;0.28;;;0.28;;
22017;SDS011;11173;51.050;7.108;2023-04-01T06:52:40;0.30;;;0.30;;
22017;SDS011;11173;51.050;7.108;2023-04-01T07:02:53;0.30;;;0.30;;
22017;SDS011;11173;51.050;7.108;2023-04-01T07:12:59;0.43;;;0.43;;
22017;SDS011;11173;51.050;7.108;2023-04-01T07:23:03;0.30;;;0.30;;
22017;SDS011;11173;51.050;7.108;2023-04-01T07:33:12;0.40;;;0.40;;
22017;SDS011;11173;51.050;7.108;2023-04-01T07:43:32;0.60;;;0.60;;
22017;SDS011;11173;51.050;7.108;2023-04-01T08:04:23;0.60;;;0.60;;
22017;SDS011;11173;51.050;7.108;2023-04-01T08:25:02;1.10;;;1.00;;
22017;SDS011;11173;51.050;7.108;2023-04-01T08:35:09;0.90;;;0.90;;
22017;SDS011;11173;51.050;7.108;2023-04-01T08:55:37;0.90;;;0.82;;
22017;SDS011;11173;51.050;7.108;2023-04-01T09:06:12;0.98;;;0.98;;
22017;SDS011;11173;51.050;7.108;2023-04-01T09:26:53;0.60;;;0.50;;
22017;SDS011;11173;51.050;7.108;2023-04-01T09:47:39;1.60;;;1.50;;
22017;SDS011;11173;51.050;7.108;2023-04-01T09:58:11;1.63;;;1.52;;
22017;SDS011;11173;51.050;7.108;2023-04-01T10:29:21;1.73;;;1.63;;
22017;SDS011;11173;51.050;7.108;2023-04-01T10:39:57;1.08;;;1.02;;
22017;SDS011;11173;51.050;7.108;2023-04-01T11:31:33;2.33;;;1.80;;
22017;SDS011;11173;51.050;7.108;2023-04-01T11:41:43;1.27;;;1.20;;
22017;SDS011;11173;51.050;7.108;2023-04-01T12:33:08;1.10;;;1.10;;
22017;SDS011;11173;51.050;7.108;2023-04-01T12:43:30;1.00;;;1.00;;
22017;SDS011;11173;51.050;7.108;2023-04-01T13:25:47;1.35;;;1.33;;
22017;SDS011;11173;51.050;7.108;2023-04-01T14:07:13;1.83;;;1.73;;
22017;SDS011;11173;51.050;7.108;2023-04-01T14:27:40;1.88;;;1.77;;
22017;SDS011;11173;51.050;7.108;2023-04-01T14:48:27;2.10;;;2.00;;
22017;SDS011;11173;51.050;7.108;2023-04-01T14:58:43;2.35;;;2.17;;
22017;SDS011;11173;51.050;7.108;2023-04-01T15:29:27;2.22;;;2.08;;
22017;SDS011;11173;51.050;7.108;2023-04-01T15:49:33;2.25;;;2.05;;
22017;SDS011;11173;51.050;7.108;2023-04-01T15:59:53;1.75;;;1.65;;
22017;SDS011;11173;51.050;7.108;2023-04-01T16:41:25;1.70;;;1.60;;
22017;SDS011;11173;51.050;7.108;2023-04-01T17:01:56;2.13;;;2.03;;
22017;SDS011;11173;51.050;7.108;2023-04-01T17:12:09;2.50;;;2.30;;
22017;SDS011;11173;51.050;7.108;2023-04-01T17:22:22;2.28;;;2.17;;
22017;SDS011;11173;51.050;7.108;2023-04-01T17:42:48;5.70;;;4.70;;
22017;SDS011;11173;51.050;7.108;2023-04-01T18:03:36;5.00;;;4.50;;
22017;SDS011;11173;51.050;7.108;2023-04-01T18:24:30;2.70;;;2.50;;
22017;SDS011;11173;51.050;7.108;2023-04-01T18:34:43;1.80;;;1.70;;
22017;SDS011;11173;51.050;7.108;2023-04-01T19:05:39;3.30;;;3.10;;
22017;SDS011;11173;51.050;7.108;2023-04-01T19:25:55;5.35;;;4.93;;
22017;SDS011;11173;51.050;7.108;2023-04-01T19:36:03;6.87;;;6.27;;
22017;SDS011;11173;51.050;7.108;2023-04-01T19:56:17;5.07;;;4.57;;
22017;SDS011;11173;51.050;7.108;2023-04-01T20:06:40;3.35;;;3.15;;
22017;SDS011;11173;51.050;7.108;2023-04-01T20:16:50;2.83;;;2.63;;
22017;SDS011;11173;51.050;7.108;2023-04-01T20:27:20;2.70;;;2.50;;
22017;SDS011;11173;51.050;7.108;2023-04-01T20:37:28;6.13;;;3.88;;
22017;SDS011;11173;51.050;7.108;2023-04-01T20:58:04;12.63;;;7.25;;
22017;SDS011;11173;51.050;7.108;2023-04-01T21:28:59;2.33;;;2.13;;
22017;SDS011;11173;51.050;7.108;2023-04-01T21:50:11;1.00;;;1.00;;
22017;SDS011;11173;51.050;7.108;2023-04-01T22:00:32;0.70;;;0.70;;
22017;SDS011;11173;51.050;7.108;2023-04-01T22:10:40;0.40;;;0.40;;
22017;SDS011;11173;51.050;7.108;2023-04-01T22:20:57;0.40;;;0.40;;
22017;SDS011;11173;51.050;7.108;2023-04-01T22:31:14;0.60;;;0.60;;
22017;SDS011;11173;51.050;7.108;2023-04-01T22:41:28;0.40;;;0.40;;
22017;SDS011;11173;51.050;7.108;2023-04-01T22:51:53;0.70;;;0.70;;
22017;SDS011;11173;51.050;7.108;2023-04-01T23:01:59;0.80;;;0.80;;
22017;SDS011;11173;51.050;7.108;2023-04-01T23:12:05;0.60;;;0.60;;
22017;SDS011;11173;51.050;7.108;2023-04-01T23:22:17;0.90;;;0.90;;
22017;SDS011;11173;51.050;7.108;2023-04-01T23:32:22;1.50;;;1.40;;
22017;SDS011;11173;51.050;7.108;2023-04-01T23:42:29;1.50;;;1.40;;
22017;SDS011;11173;51.050;7.108;2023-04-01T23:53:16;1.95;;;1.85;;
